If you wish to contribute or participate in the discussions about articles you are invited to join SKYbrary as a registered user

 Actions

Presidente Castro Pinto International Airport

From SKYbrary Wiki

SBJP
Airport
ICAO: SBJP – IATA: JPA
Summary
Name Presidente Castro Pinto International Airport
Region South America and Caribbean
Territory Brazil BR.gif
Location Bayeux, Paraiba
Serving João Pessoa
Elevation 65.532 m
215 ft65.532 m
Coordinates 7° 8' 44.99" S, 34° 56' 55.00" W
Runways
Designator Length Width Surface ROPS
16/34 2515 m8,251.312 ft
45 m147.638 ft
ASP yes/yes


METAR
Observation SBJP 230200Z 19003KT CAVOK 25/24 Q1013
Station Joao Pessoa
Date/Time 23 May 2019 02:00:00
Wind direction 190°
Wind speed 03 kts
Lowest cloud amount clouds and visibility OK
Temperature 25°C
Dew point 24°C
Humidity 94%
QNH 1013 hPa
Weather condition n/a

Presidente Castro Pinto International Airport is the airport serving João Pessoa, Brazil located in the adjoining municipality of Bayeux.

Climatology

Tropical monsoon climate (Köppen climate classification Am)

Maps

Terrain

Loading map...

Airport Layout

Loading map...


Accidents & Serious Incidents at or in vicinity of SBJP

None on SKYbrary